createdAt,value
2022-08-18T00:00:17.770Z,3375
2022-08-18T00:01:16.153Z,3902
2022-08-18T00:02:15.978Z,3369
2022-08-18T00:03:27.578Z,4000
2022-08-18T00:05:16.122Z,3369
2022-08-18T00:06:15.835Z,3873
2022-08-18T00:07:15.932Z,3902
2022-08-18T00:08:15.955Z,3695
2022-08-18T00:10:18.721Z,3505
2022-08-18T00:11:15.935Z,3991
2022-08-18T00:12:15.940Z,3702
2022-08-18T00:13:15.978Z,3403
2022-08-18T00:15:16.120Z,3572
2022-08-18T00:16:15.942Z,3443
2022-08-18T00:17:15.930Z,3984
2022-08-18T00:18:15.962Z,3984
2022-08-18T00:20:16.091Z,3488
2022-08-18T00:21:15.957Z,3479
2022-08-18T00:22:16.045Z,4086
2022-08-18T00:23:15.833Z,3526
2022-08-18T00:25:16.165Z,4142
2022-08-18T00:26:15.959Z,3604
2022-08-18T00:27:15.939Z,4234
2022-08-18T00:28:15.943Z,3549
2022-08-18T00:30:16.129Z,3563
2022-08-18T00:31:15.936Z,4142
2022-08-18T00:32:15.948Z,3984
2022-08-18T00:33:15.938Z,4014
2022-08-18T00:35:16.138Z,3959
2022-08-18T00:36:15.961Z,3424
2022-08-18T00:37:15.947Z,4045
2022-08-18T00:38:23.428Z,4045
2022-08-18T00:40:16.218Z,4072
2022-08-18T00:41:15.948Z,3375
2022-08-18T00:42:26.919Z,4041
2022-08-18T00:43:15.964Z,3906
2022-08-18T00:45:16.149Z,3906
2022-08-18T00:46:15.962Z,4041
2022-08-18T00:47:15.949Z,3614
2022-08-18T00:48:15.992Z,3505
2022-08-18T00:50:16.273Z,4014
2022-08-18T00:51:15.952Z,3555
2022-08-18T00:52:15.863Z,3518
2022-08-18T00:53:15.975Z,4286
2022-08-18T00:55:16.149Z,4138
2022-08-18T00:56:15.949Z,4110
2022-08-18T00:57:15.957Z,4154
2022-08-18T00:58:15.971Z,3824
2022-08-18T01:00:16.196Z,4072
2022-08-18T01:01:16.080Z,3666
2022-08-18T01:02:15.963Z,3518
2022-08-18T01:03:15.999Z,3424
2022-08-18T01:05:16.161Z,3824
2022-08-18T01:06:15.958Z,3559
2022-08-18T01:07:15.851Z,4134
2022-08-18T01:08:15.958Z,3532
2022-08-18T01:10:16.118Z,4154
2022-08-18T01:11:15.986Z,3549
2022-08-18T01:12:27.962Z,4234
2022-08-18T01:13:15.989Z,3287
2022-08-18T01:15:27.677Z,4178
2022-08-18T01:16:15.985Z,3191
2022-08-18T01:17:15.967Z,3607
2022-08-18T01:18:15.966Z,3594
2022-08-18T01:20:16.180Z,3607
2022-08-18T01:21:15.958Z,3607
2022-08-18T01:22:16.000Z,3536
2022-08-18T01:23:15.971Z,4186
2022-08-18T01:25:16.124Z,4202
2022-08-18T01:26:15.990Z,4110
2022-08-18T01:27:15.872Z,3594
2022-08-18T01:28:15.867Z,4041
2022-08-18T01:30:16.172Z,3337
2022-08-18T01:31:15.987Z,3934
2022-08-18T01:32:15.970Z,3225
2022-08-18T01:33:15.979Z,3492
2022-08-18T01:35:16.135Z,3536
2022-08-18T01:36:15.989Z,3576
2022-08-18T01:37:15.979Z,3559
2022-08-18T01:38:15.972Z,4210
2022-08-18T01:41:00.407Z,4210
2022-08-18T01:41:25.391Z,3710
2022-08-18T01:42:16.075Z,4323
2022-08-18T01:43:16.004Z,4298
2022-08-18T01:45:16.200Z,3678
2022-08-18T01:46:15.980Z,3594
2022-08-18T01:47:16.004Z,3857
2022-08-18T01:48:15.981Z,4166
2022-08-18T01:50:16.170Z,4186
2022-08-18T01:51:15.976Z,3589
2022-08-18T01:52:15.986Z,3625
2022-08-18T01:53:15.984Z,3563
2022-08-18T01:55:16.174Z,4170
2022-08-18T01:56:15.991Z,4242
2022-08-18T01:57:15.894Z,3730
2022-08-18T01:58:16.006Z,3705
2022-08-18T02:00:16.183Z,4331
2022-08-18T02:01:16.030Z,4138
2022-08-18T02:02:18.100Z,3197
2022-08-18T02:03:15.987Z,4138
2022-08-18T02:05:16.184Z,3614
2022-08-18T02:06:15.984Z,4142
2022-08-18T02:07:16.020Z,3607
2022-08-18T02:08:15.987Z,3607
2022-08-18T02:10:16.490Z,3499
2022-08-18T02:11:16.013Z,3632
2022-08-18T02:12:16.024Z,4323
2022-08-18T02:13:15.997Z,3614
2022-08-18T02:15:16.214Z,4210
2022-08-18T02:16:15.998Z,3765
2022-08-18T02:17:16.001Z,3369
2022-08-18T02:18:16.769Z,3717
2022-08-18T02:20:16.222Z,4347
2022-08-18T02:21:18.859Z,3582
2022-08-18T02:22:16.023Z,3479
2022-08-18T02:23:16.001Z,4178
2022-08-18T02:25:16.195Z,3449
2022-08-18T02:26:16.063Z,4134
2022-08-18T02:27:16.033Z,3492
2022-08-18T02:28:16.026Z,4150
2022-08-18T02:30:16.161Z,4210
2022-08-18T02:31:16.006Z,3902
2022-08-18T02:32:16.026Z,4394
2022-08-18T02:33:16.005Z,3916
2022-08-18T02:35:16.201Z,3673
2022-08-18T02:36:16.027Z,4178
2022-08-18T02:37:16.021Z,4065
2022-08-18T02:38:17.445Z,4102
2022-08-18T02:40:16.274Z,3582
2022-08-18T02:41:16.005Z,4222
2022-08-18T02:42:15.933Z,3632
2022-08-18T02:43:16.007Z,4210
2022-08-18T02:45:16.197Z,4270
2022-08-18T02:46:16.007Z,4186
2022-08-18T02:47:16.004Z,4270
2022-08-18T02:48:16.015Z,3635
2022-08-18T02:50:16.208Z,4234
2022-08-18T02:51:16.016Z,3589
2022-08-18T02:52:16.012Z,4234
2022-08-18T02:53:16.009Z,3607
2022-08-18T02:55:16.215Z,4210
2022-08-18T02:56:16.015Z,3702
2022-08-18T02:57:16.009Z,3632
2022-08-18T02:58:16.017Z,4323
2022-08-18T03:00:16.209Z,4347
2022-08-18T03:01:16.120Z,4323
2022-08-18T03:02:16.038Z,4290
2022-08-18T03:03:16.051Z,3678
2022-08-18T03:05:16.211Z,4323
2022-08-18T03:06:15.913Z,4360
2022-08-18T03:07:16.067Z,3695
2022-08-18T03:08:15.943Z,4286
2022-08-18T03:10:32.204Z,4286
2022-08-18T03:11:16.041Z,4254
2022-08-18T03:12:16.054Z,4254
2022-08-18T03:13:16.052Z,4186
2022-08-18T03:15:16.220Z,3649
2022-08-18T03:16:16.020Z,4198
2022-08-18T03:17:16.048Z,4286
2022-08-18T03:18:16.027Z,4198
2022-08-18T03:20:16.187Z,4026
2022-08-18T03:21:16.028Z,3456
2022-08-18T03:22:24.371Z,3456
2022-08-18T03:23:16.030Z,4026
2022-08-18T03:25:16.230Z,3853
2022-08-18T03:26:16.056Z,4234
2022-08-18T03:27:16.053Z,4315
2022-08-18T03:28:16.031Z,4234
2022-08-18T03:30:16.253Z,3622
2022-08-18T03:31:16.057Z,4254
2022-08-18T03:32:16.031Z,4270
2022-08-18T03:33:16.037Z,3959
2022-08-18T03:35:16.234Z,3443
2022-08-18T03:36:16.032Z,3607
2022-08-18T03:37:16.052Z,3678
2022-08-18T03:38:16.040Z,4041
2022-08-18T03:40:16.273Z,3594
2022-08-18T03:41:16.035Z,4170
2022-08-18T03:42:16.039Z,4150
2022-08-18T03:43:23.830Z,4150
2022-08-18T03:45:17.667Z,3526
2022-08-18T03:46:16.043Z,4242
2022-08-18T03:47:16.040Z,4347
2022-08-18T03:48:16.075Z,4210
2022-08-18T03:50:16.269Z,4138
2022-08-18T03:51:15.945Z,4270
2022-08-18T03:52:16.038Z,4218
2022-08-18T03:53:15.952Z,4021
2022-08-18T03:55:16.239Z,4056
2022-08-18T03:56:17.511Z,4150
2022-08-18T03:58:16.070Z,3563
2022-08-18T03:59:16.047Z,3549
2022-08-18T04:00:16.204Z,3622
2022-08-18T04:01:16.154Z,3466
2022-08-18T04:02:16.054Z,4118
2022-08-18T04:03:16.049Z,4118
2022-08-18T04:04:16.074Z,4052
2022-08-18T04:05:16.237Z,3499
2022-08-18T04:06:16.083Z,4052
2022-08-18T04:07:16.060Z,4150
2022-08-18T04:08:16.077Z,4150
2022-08-18T04:09:16.049Z,3492
2022-08-18T04:10:16.302Z,3545
2022-08-18T04:11:16.076Z,3518
2022-08-18T04:12:16.482Z,3563
2022-08-18T04:13:16.055Z,3563
2022-08-18T04:14:16.068Z,3563
2022-08-18T04:15:16.253Z,4186
2022-08-18T04:16:16.051Z,4102
2022-08-18T04:17:16.059Z,4166
2022-08-18T04:18:16.061Z,4052
2022-08-18T04:19:22.779Z,4102
2022-08-18T04:20:16.209Z,3635
2022-08-18T04:21:16.059Z,3509
2022-08-18T04:22:17.073Z,3678
2022-08-18T04:23:16.063Z,3456
2022-08-18T04:24:15.963Z,3492
2022-08-18T04:25:16.260Z,3492
2022-08-18T04:26:17.380Z,3519
2022-08-18T04:27:16.058Z,3545
2022-08-18T04:28:15.958Z,4079
2022-08-18T04:29:16.088Z,4166
2022-08-18T04:30:16.258Z,3582
2022-08-18T04:31:16.065Z,4210
2022-08-18T04:32:16.058Z,4186
2022-08-18T04:33:16.063Z,3582
2022-08-18T04:34:16.090Z,4222
2022-08-18T04:35:16.265Z,4323
2022-08-18T04:36:18.817Z,3262
2022-08-18T04:37:16.062Z,3505
2022-08-18T04:38:16.060Z,3549
2022-08-18T04:39:16.056Z,3505
2022-08-18T04:40:17.631Z,4086
2022-08-18T04:41:16.091Z,4086
2022-08-18T04:42:16.089Z,4045
2022-08-18T04:43:16.059Z,4118
2022-08-18T04:44:15.996Z,4045
2022-08-18T04:45:16.271Z,4142
2022-08-18T04:46:15.963Z,3519
2022-08-18T04:47:16.101Z,4186
2022-08-18T04:48:16.081Z,3894
2022-08-18T04:49:16.071Z,4202
2022-08-18T04:50:16.228Z,3959
2022-08-18T04:52:21.773Z,3965
2022-08-18T04:52:22.124Z,4072
2022-08-18T04:53:16.098Z,3938
2022-08-18T04:54:16.236Z,3449
2022-08-18T04:55:16.262Z,3938
2022-08-18T04:56:16.077Z,3934
2022-08-18T04:57:16.085Z,3952
2022-08-18T04:58:16.077Z,3952
2022-08-18T04:59:16.086Z,3397
2022-08-18T05:00:16.229Z,3417
2022-08-18T05:01:16.108Z,3349
2022-08-18T05:02:15.983Z,3173
2022-08-18T05:03:16.078Z,3349
2022-08-18T05:05:16.284Z,3095
2022-08-18T05:06:16.077Z,3462
2022-08-18T05:07:16.089Z,3359
2022-08-18T05:08:16.097Z,3462
2022-08-18T05:09:16.465Z,3984
2022-08-18T05:10:16.242Z,3959
2022-08-18T05:11:16.110Z,3902
2022-08-18T05:12:16.082Z,3365
2022-08-18T05:13:16.080Z,3365
2022-08-18T05:15:16.276Z,4186
2022-08-18T05:16:27.196Z,4218
2022-08-18T05:17:16.119Z,3730
2022-08-18T05:18:16.087Z,3748
2022-08-18T05:19:16.109Z,4496
2022-08-18T05:20:16.274Z,4599
2022-08-18T05:21:16.112Z,4564
2022-08-18T05:22:16.131Z,3405
2022-08-18T05:23:16.098Z,3938
2022-08-18T05:24:16.080Z,4725
2022-08-18T05:26:21.864Z,4110
2022-08-18T05:27:16.082Z,4793
2022-08-18T05:28:16.097Z,4166
2022-08-18T05:30:16.284Z,4974
2022-08-18T05:31:16.091Z,4134
2022-08-18T05:32:30.743Z,4234
2022-08-18T05:33:16.002Z,5192
2022-08-18T05:35:16.251Z,4385
2022-08-18T05:36:16.120Z,5096
2022-08-18T05:37:16.109Z,4315
2022-08-18T05:38:16.102Z,3795
2022-08-18T05:40:16.333Z,4530
2022-08-18T05:41:16.129Z,5483
2022-08-18T05:42:16.092Z,5435
2022-08-18T05:43:16.092Z,4648
2022-08-18T05:45:16.255Z,5483
2022-08-18T05:46:16.102Z,4339
2022-08-18T05:47:16.108Z,5202
2022-08-18T05:48:16.104Z,4479
2022-08-18T05:50:16.326Z,5202
2022-08-18T05:51:16.106Z,4855
2022-08-18T05:52:16.103Z,3795
2022-08-18T05:53:16.103Z,4582
2022-08-18T05:55:16.309Z,5297
2022-08-18T05:56:16.110Z,4410
2022-08-18T05:57:16.108Z,5378
2022-08-18T05:58:16.124Z,5192
2022-08-18T06:00:16.261Z,5162
2022-08-18T06:01:16.140Z,4278
2022-08-18T06:02:16.167Z,5247
2022-08-18T06:03:16.200Z,5016
2022-08-18T06:05:16.309Z,5182
2022-08-18T06:06:16.125Z,4315
2022-08-18T06:07:16.037Z,3839
2022-08-18T06:08:16.143Z,4234
2022-08-18T06:10:16.351Z,4950
2022-08-18T06:11:17.225Z,4874
2022-08-18T06:12:16.121Z,5007
2022-08-18T06:13:16.149Z,4765
2022-08-18T06:15:16.284Z,4102
2022-08-18T06:16:16.138Z,4150
2022-08-18T06:17:16.145Z,4963
2022-08-18T06:18:16.120Z,4845
2022-08-18T06:20:16.344Z,4573
2022-08-18T06:21:16.123Z,3705
2022-08-18T06:22:16.114Z,4491
2022-08-18T06:23:16.150Z,4427
2022-08-18T06:25:16.324Z,3673
2022-08-18T06:26:16.122Z,4373
2022-08-18T06:27:16.126Z,3660
2022-08-18T06:28:16.129Z,4491
2022-08-18T06:30:16.318Z,4373
2022-08-18T06:31:16.148Z,3545
2022-08-18T06:32:16.125Z,4079
2022-08-18T06:33:16.146Z,4134
2022-08-18T06:35:16.280Z,4079
2022-08-18T06:36:18.683Z,3952
2022-08-18T06:37:16.131Z,3965
2022-08-18T06:38:16.152Z,3314
2022-08-18T06:40:16.417Z,3730
2022-08-18T06:41:37.866Z,3278
2022-08-18T06:42:16.164Z,3302
2022-08-18T06:43:16.172Z,3381
2022-08-18T06:45:16.292Z,3262
2022-08-18T06:46:16.163Z,3158
2022-08-18T06:47:16.138Z,3095
2022-08-18T06:48:16.141Z,3673
2022-08-18T06:50:16.336Z,3625
2022-08-18T06:51:16.136Z,3089
2022-08-18T06:52:16.152Z,3582
2022-08-18T06:53:18.849Z,3666
2022-08-18T06:55:16.335Z,2931
2022-08-18T06:56:26.122Z,3249
2022-08-18T06:57:16.171Z,3261
2022-08-18T06:58:16.181Z,3261
2022-08-18T07:00:16.330Z,3152
2022-08-18T07:01:16.182Z,3131
2022-08-18T07:02:16.157Z,3131
2022-08-18T07:03:16.139Z,3057
2022-08-18T07:05:16.301Z,2509
2022-08-18T07:06:16.150Z,2361
2022-08-18T07:07:16.149Z,2820
2022-08-18T07:08:16.170Z,2330
2022-08-18T07:10:16.360Z,2625
2022-08-18T07:11:16.154Z,2837
2022-08-18T07:12:16.152Z,2780
2022-08-18T07:13:16.157Z,2676
2022-08-18T07:15:16.320Z,2146
2022-08-18T07:16:17.401Z,2812
2022-08-18T07:17:16.159Z,2276
2022-08-18T07:18:16.159Z,2255
2022-08-18T07:20:16.349Z,2591
2022-08-18T07:21:16.155Z,1995
2022-08-18T07:22:16.876Z,1985
2022-08-18T07:23:16.211Z,1937
2022-08-18T07:25:16.380Z,2114
2022-08-18T07:26:16.157Z,2164
2022-08-18T07:27:16.159Z,2247
2022-08-18T07:28:16.183Z,1844
2022-08-18T07:30:16.326Z,1811
2022-08-18T07:31:17.516Z,1870
2022-08-18T07:32:20.861Z,2172
2022-08-18T07:33:16.163Z,2203
2022-08-18T07:35:16.317Z,2088
2022-08-18T07:36:16.161Z,2074
2022-08-18T07:37:16.174Z,2058
2022-08-18T07:38:38.966Z,2011
2022-08-18T07:40:16.353Z,1670
2022-08-18T07:41:16.173Z,1877
2022-08-18T07:42:16.191Z,1825
2022-08-18T07:43:16.201Z,1848
2022-08-18T07:45:16.364Z,1838
2022-08-18T07:46:16.210Z,1890
2022-08-18T07:47:16.164Z,1679
2022-08-18T07:48:36.814Z,1890
2022-08-18T07:50:23.342Z,1864
2022-08-18T07:51:16.520Z,1617
2022-08-18T07:52:36.747Z,1873
2022-08-18T07:53:16.178Z,1568
2022-08-18T07:55:16.327Z,1927
2022-08-18T07:56:16.187Z,1673
2022-08-18T07:57:19.782Z,1830
2022-08-18T07:58:16.177Z,1527
2022-08-18T08:00:20.682Z,1557
2022-08-18T08:01:16.200Z,1873
2022-08-18T08:02:16.213Z,1830
2022-08-18T08:03:16.182Z,1580
2022-08-18T08:05:16.338Z,1813
2022-08-18T08:06:16.177Z,1741
2022-08-18T08:07:24.700Z,1427
2022-08-18T08:08:16.218Z,1422
2022-08-18T08:10:16.386Z,1324
2022-08-18T08:11:16.212Z,1666
2022-08-18T08:12:16.201Z,1360
2022-08-18T08:13:22.311Z,1626
2022-08-18T08:15:16.368Z,1301
2022-08-18T08:16:16.204Z,1509
2022-08-18T08:17:16.220Z,1253
2022-08-18T08:18:16.186Z,1459
2022-08-18T08:20:16.346Z,1366
2022-08-18T08:21:16.190Z,1402
2022-08-18T08:22:16.213Z,1390
2022-08-18T08:23:16.231Z,1136
2022-08-18T08:25:35.035Z,1080
2022-08-18T08:26:16.204Z,1158
2022-08-18T08:27:16.195Z,1316
2022-08-18T08:28:16.221Z,1314
2022-08-18T08:30:16.401Z,1212
2022-08-18T08:31:32.921Z,1231
2022-08-18T08:32:16.239Z,1261
2022-08-18T08:33:16.223Z,1229
2022-08-18T08:35:47.454Z,1202
2022-08-18T08:36:16.199Z,1268
2022-08-18T08:37:16.212Z,1060
2022-08-18T08:38:36.936Z,1253
2022-08-18T08:40:16.381Z,1076
2022-08-18T08:41:16.217Z,996
2022-08-18T08:42:30.092Z,1204
2022-08-18T08:43:16.203Z,1076
2022-08-18T08:45:16.358Z,985
2022-08-18T08:46:16.200Z,1055
2022-08-18T08:47:16.967Z,1286
2022-08-18T08:48:16.209Z,1296
2022-08-18T08:50:16.371Z,1373
2022-08-18T08:51:16.209Z,1296
2022-08-18T08:52:18.869Z,1314
2022-08-18T08:53:16.235Z,1360
2022-08-18T08:55:16.360Z,1197
2022-08-18T08:56:16.222Z,1493
2022-08-18T08:57:16.222Z,1527
2022-08-18T08:58:16.241Z,1541
2022-08-18T09:00:16.407Z,1601
2022-08-18T09:01:16.270Z,1751
2022-08-18T09:02:37.809Z,1745
2022-08-18T09:03:16.211Z,1472
2022-08-18T09:05:16.614Z,1486
2022-08-18T09:06:16.249Z,1552
2022-08-18T09:07:16.218Z,1884
2022-08-18T09:08:16.243Z,1877
2022-08-18T09:10:16.440Z,1614
2022-08-18T09:11:16.222Z,1985
2022-08-18T09:12:16.244Z,1549
2022-08-18T09:13:16.228Z,1694
2022-08-18T09:15:16.422Z,2014
2022-08-18T09:16:16.243Z,1927
2022-08-18T09:17:16.221Z,1936
2022-08-18T09:18:16.249Z,1896
2022-08-18T09:20:16.477Z,1927
2022-08-18T09:21:16.235Z,1963
2022-08-18T09:22:16.248Z,1899
2022-08-18T09:23:16.232Z,1922
2022-08-18T09:25:16.433Z,1988
2022-08-18T09:26:16.258Z,1877
2022-08-18T09:27:16.252Z,1890
2022-08-18T09:28:16.236Z,1517
2022-08-18T09:30:16.440Z,1884
2022-08-18T09:32:16.229Z,1813
2022-08-18T09:33:18.638Z,1805
2022-08-18T09:35:16.388Z,1714
2022-08-18T09:36:20.101Z,2008
2022-08-18T09:37:16.257Z,2062
2022-08-18T09:38:16.237Z,2088
2022-08-18T09:40:16.474Z,2096
2022-08-18T09:41:16.265Z,2096
2022-08-18T09:42:16.235Z,2120
2022-08-18T09:43:20.133Z,2050
2022-08-18T09:45:16.482Z,1496
2022-08-18T09:46:16.274Z,1789
2022-08-18T09:47:16.270Z,1776
2022-08-18T09:48:20.605Z,1776
2022-08-18T09:50:24.794Z,1763
2022-08-18T09:51:17.485Z,1741
2022-08-18T09:52:16.246Z,1769
2022-08-18T09:53:16.254Z,2017
2022-08-18T09:55:16.441Z,2146
2022-08-18T09:56:19.573Z,1748
2022-08-18T09:57:16.256Z,1801
2022-08-18T10:00:16.485Z,1700
2022-08-18T10:01:16.303Z,1680
2022-08-18T10:02:20.388Z,1702
2022-08-18T10:03:16.260Z,1776
2022-08-18T10:05:16.443Z,2120
2022-08-18T10:06:16.248Z,1873
2022-08-18T10:07:16.300Z,2305
2022-08-18T10:08:21.162Z,2372
2022-08-18T10:10:59.675Z,2330
2022-08-18T10:11:16.253Z,1983
2022-08-18T10:12:16.202Z,2521
2022-08-18T10:13:16.256Z,2576
2022-08-18T10:15:27.067Z,2712
2022-08-18T10:16:16.273Z,2528
2022-08-18T10:17:21.984Z,2528
2022-08-18T10:18:16.286Z,2546
2022-08-18T10:20:23.835Z,2671
2022-08-18T10:21:16.259Z,2438
2022-08-18T10:22:16.256Z,2537
2022-08-18T10:23:16.263Z,2569
2022-08-18T10:26:16.296Z,2534
2022-08-18T10:27:16.326Z,2549
2022-08-18T10:28:16.286Z,2591
2022-08-18T10:30:16.421Z,2430
2022-08-18T10:31:16.162Z,2104
2022-08-18T10:32:16.331Z,2684
2022-08-18T10:33:17.651Z,2164
2022-08-18T10:35:16.421Z,2272
2022-08-18T10:36:16.300Z,2859
2022-08-18T10:37:16.909Z,2960
2022-08-18T10:38:16.275Z,2425
2022-08-18T10:40:16.481Z,2859
2022-08-18T10:41:16.268Z,2608
2022-08-18T10:42:16.280Z,3167
2022-08-18T10:43:45.495Z,2591
2022-08-18T10:45:22.195Z,3062
2022-08-18T10:46:24.785Z,2825
2022-08-18T10:47:16.291Z,2834
2022-08-18T10:48:16.683Z,3572
2022-08-18T10:50:16.479Z,3488
2022-08-18T10:51:21.449Z,3673
2022-08-18T10:52:16.309Z,3642
2022-08-18T10:53:38.724Z,3594
2022-08-18T10:55:16.466Z,3518
2022-08-18T10:56:16.285Z,2702
2022-08-18T10:57:16.286Z,3287
2022-08-18T10:58:16.309Z,3179
2022-08-18T11:00:16.513Z,3077
2022-08-18T11:01:16.282Z,2164
2022-08-18T11:02:16.330Z,2968
2022-08-18T11:03:42.944Z,2635
2022-08-18T11:05:16.490Z,2704
2022-08-18T11:06:18.378Z,2725
2022-08-18T11:07:18.141Z,2647
2022-08-18T11:08:16.366Z,2576
2022-08-18T11:10:28.953Z,1985
2022-08-18T11:12:16.289Z,1867
2022-08-18T11:13:16.316Z,2207
2022-08-18T11:15:21.053Z,2106
2022-08-18T11:16:16.295Z,1858
2022-08-18T11:17:16.322Z,1667
2022-08-18T11:18:16.362Z,1858
2022-08-18T11:20:17.860Z,1791
2022-08-18T11:21:16.323Z,1807
2022-08-18T11:22:16.388Z,1769
2022-08-18T11:23:16.302Z,1741
2022-08-18T11:25:16.502Z,1378
2022-08-18T11:26:18.271Z,1536
2022-08-18T11:27:16.298Z,1532
2022-08-18T11:28:16.328Z,1256
2022-08-18T11:30:17.184Z,1536
2022-08-18T11:31:16.306Z,1401
2022-08-18T11:32:17.882Z,1312
2022-08-18T11:35:16.498Z,1735
2022-08-18T11:36:16.304Z,1368
2022-08-18T11:37:16.329Z,1404
2022-08-18T11:38:21.034Z,1496
2022-08-18T11:40:22.398Z,1732
2022-08-18T11:41:17.168Z,2074
2022-08-18T11:42:22.026Z,1714
2022-08-18T11:43:16.336Z,2240
2022-08-18T11:45:16.502Z,2447
2022-08-18T11:46:16.531Z,2191
2022-08-18T11:47:16.333Z,2230
2022-08-18T11:48:16.320Z,2589
2022-08-18T11:50:16.508Z,2834
2022-08-18T11:51:16.336Z,3027
2022-08-18T11:52:16.339Z,2558
2022-08-18T11:53:16.314Z,2640
2022-08-18T11:56:16.348Z,3635
2022-08-18T11:57:16.342Z,3635
2022-08-18T11:58:16.320Z,3780
2022-08-18T12:00:23.892Z,3324
2022-08-18T12:01:16.310Z,3152
2022-08-18T12:02:16.337Z,4142
2022-08-18T12:03:16.315Z,4065
2022-08-18T12:05:17.853Z,3302
2022-08-18T12:06:19.253Z,4452
2022-08-18T12:07:20.475Z,3536
2022-08-18T12:08:33.500Z,4679
2022-08-18T12:10:18.965Z,4525
2022-08-18T12:11:26.993Z,4734
2022-08-18T12:12:16.326Z,3748
2022-08-18T12:13:16.390Z,4702
2022-08-18T12:16:16.373Z,3765
2022-08-18T12:17:16.322Z,4725
2022-08-18T12:18:18.622Z,4381
2022-08-18T12:20:16.526Z,4888
2022-08-18T12:21:16.333Z,4662
2022-08-18T12:22:16.341Z,4883
2022-08-18T12:23:16.356Z,4807
2022-08-18T12:25:16.539Z,3959
2022-08-18T12:26:18.882Z,4775
2022-08-18T12:27:20.558Z,3741
2022-08-18T12:28:16.329Z,4907
2022-08-18T12:30:16.900Z,4945
2022-08-18T12:31:17.026Z,5674
2022-08-18T12:32:17.696Z,5674
2022-08-18T12:33:16.413Z,5674
2022-08-18T12:35:16.540Z,4840
2022-08-18T12:36:16.336Z,5287
2022-08-18T12:37:54.347Z,5461
2022-08-18T12:38:16.339Z,5420
2022-08-18T12:40:16.615Z,5566
2022-08-18T12:41:19.902Z,4530
2022-08-18T12:42:16.337Z,5620
2022-08-18T12:43:16.346Z,4679
2022-08-18T12:45:16.491Z,4564
2022-08-18T12:46:16.420Z,5587
2022-08-18T12:47:16.374Z,4604
2022-08-18T12:48:16.343Z,5923
2022-08-18T12:50:16.550Z,6183
2022-08-18T12:51:16.376Z,5277
2022-08-18T12:52:17.198Z,5378
2022-08-18T12:53:16.368Z,5420
2022-08-18T12:55:21.553Z,4385
2022-08-18T12:56:16.355Z,4775
2022-08-18T12:57:21.493Z,6111
2022-08-18T12:58:16.346Z,6338
2022-08-18T13:01:17.592Z,4840
2022-08-18T13:02:16.383Z,6285
2022-08-18T13:03:16.357Z,4874
2022-08-18T13:05:16.555Z,4968
2022-08-18T13:06:16.630Z,6454
2022-08-18T13:07:16.360Z,5045
2022-08-18T13:08:27.490Z,6575
2022-08-18T13:10:21.666Z,6504
2022-08-18T13:11:21.555Z,5373
2022-08-18T13:12:16.715Z,5373
2022-08-18T13:13:16.381Z,5409
2022-08-18T13:15:16.560Z,5322
2022-08-18T13:16:30.314Z,6863
2022-08-18T13:17:29.598Z,6863
2022-08-18T13:18:16.358Z,7161
2022-08-18T13:20:16.587Z,5620
2022-08-18T13:21:16.386Z,7201
2022-08-18T13:22:16.390Z,7348
2022-08-18T13:23:19.000Z,5872
2022-08-18T13:25:28.961Z,7582
2022-08-18T13:26:16.380Z,6918
2022-08-18T13:27:18.695Z,7313
2022-08-18T13:28:16.376Z,7384
2022-08-18T13:30:30.739Z,5952
2022-08-18T13:31:16.403Z,7685
2022-08-18T13:32:16.393Z,5946
2022-08-18T13:33:35.497Z,7369
2022-08-18T13:35:16.578Z,5729
2022-08-18T13:36:16.380Z,6984
2022-08-18T13:37:16.398Z,6237
2022-08-18T13:38:20.772Z,7113
2022-08-18T13:40:16.638Z,5641
2022-08-18T13:41:16.864Z,7327
2022-08-18T13:42:21.853Z,6796
2022-08-18T13:43:17.306Z,7327
2022-08-18T13:45:23.132Z,5861
2022-08-18T13:46:16.383Z,7567
2022-08-18T13:47:16.377Z,6021
2022-08-18T13:48:16.382Z,5974
2022-08-18T13:50:16.605Z,3318
2022-08-18T13:51:16.388Z,3411
2022-08-18T13:52:32.942Z,4214
2022-08-18T13:53:16.384Z,4266
2022-08-18T13:55:16.950Z,3356
2022-08-18T13:56:16.379Z,3945
2022-08-18T13:57:16.397Z,3945
2022-08-18T13:58:17.779Z,3945
2022-08-18T14:00:18.139Z,3149
2022-08-18T14:01:39.983Z,4023
2022-08-18T14:02:16.445Z,3278
2022-08-18T14:03:20.542Z,4126
2022-08-18T14:05:16.577Z,4065
2022-08-18T14:06:18.466Z,4072
2022-08-18T14:07:18.774Z,3225
2022-08-18T14:08:18.872Z,4033
2022-08-18T14:10:16.544Z,3346
2022-08-18T14:11:16.409Z,4250
2022-08-18T14:12:23.049Z,3408
2022-08-18T14:13:20.392Z,4394
2022-08-18T14:15:16.601Z,3968
2022-08-18T14:16:18.751Z,3173
2022-08-18T14:17:16.399Z,4083
2022-08-18T14:18:16.503Z,3194
2022-08-18T14:20:21.483Z,3810
2022-08-18T14:21:16.402Z,3628
2022-08-18T14:22:16.403Z,2704
2022-08-18T14:23:21.451Z,2939
2022-08-18T14:25:16.603Z,3684
2022-08-18T14:26:16.398Z,3268
2022-08-18T14:27:16.426Z,3209
2022-08-18T14:28:16.404Z,2625
2022-08-18T14:30:16.594Z,2645
2022-08-18T14:31:18.190Z,3400
2022-08-18T14:32:17.999Z,2799
2022-08-18T14:35:34.174Z,2825
2022-08-18T14:36:16.299Z,2712
2022-08-18T14:37:16.403Z,2518
2022-08-18T14:38:16.420Z,3350
2022-08-18T14:40:16.607Z,3388
2022-08-18T14:41:16.418Z,2822
2022-08-18T14:42:16.430Z,3566
2022-08-18T14:43:16.414Z,3508
2022-08-18T14:46:16.425Z,3262
2022-08-18T14:47:17.444Z,2630
2022-08-18T14:48:16.385Z,2719
2022-08-18T14:50:16.589Z,2770
2022-08-18T14:51:16.417Z,3434
2022-08-18T14:52:16.394Z,3583
2022-08-18T14:53:16.396Z,3023
2022-08-18T14:55:16.628Z,3792
2022-08-18T14:56:16.396Z,3765
2022-08-18T14:57:16.433Z,3182
2022-08-18T14:58:16.394Z,3887
2022-08-18T15:00:16.543Z,3212
2022-08-18T15:01:16.443Z,2939
2022-08-18T15:02:16.410Z,2992
2022-08-18T15:03:16.425Z,3727
2022-08-18T15:05:19.352Z,3663
2022-08-18T15:06:16.937Z,3083
2022-08-18T15:07:17.517Z,3705
2022-08-18T15:08:16.434Z,3705
2022-08-18T15:10:16.920Z,2996
2022-08-18T15:11:16.410Z,3566
2022-08-18T15:12:16.399Z,3741
2022-08-18T15:13:16.437Z,3702
2022-08-18T15:15:17.891Z,3635
2022-08-18T15:16:16.403Z,3070
2022-08-18T15:17:16.397Z,3098
2022-08-18T15:18:22.474Z,3791
2022-08-18T15:20:16.603Z,3814
2022-08-18T15:21:19.752Z,3287
2022-08-18T15:22:16.401Z,2822
2022-08-18T15:23:16.410Z,3318
2022-08-18T15:25:16.565Z,3456
2022-08-18T15:26:16.426Z,3684
2022-08-18T15:27:19.504Z,3865
2022-08-18T15:28:16.622Z,3083
2022-08-18T15:30:19.633Z,3762
2022-08-18T15:31:16.964Z,3741
2022-08-18T15:32:16.955Z,3601
2022-08-18T15:33:16.430Z,3536
2022-08-18T15:35:16.570Z,3791
2022-08-18T15:36:16.488Z,3824
2022-08-18T15:37:19.690Z,3887
2022-08-18T15:38:16.424Z,4011
2022-08-18T15:40:21.661Z,3562
2022-08-18T15:41:16.451Z,3594
2022-08-18T15:42:16.444Z,2975
2022-08-18T15:43:18.011Z,3594
2022-08-18T15:45:16.627Z,2822
2022-08-18T15:46:16.782Z,3755
2022-08-18T15:47:20.878Z,3684
2022-08-18T15:48:16.426Z,3653
2022-08-18T15:50:21.765Z,3456
2022-08-18T15:51:17.024Z,3225
2022-08-18T15:52:17.738Z,3225
2022-08-18T15:53:16.427Z,3164
2022-08-18T15:55:16.656Z,3107
2022-08-18T15:56:16.458Z,2563
2022-08-18T15:57:24.328Z,3107
2022-08-18T15:58:16.435Z,2527
2022-08-18T16:00:16.640Z,3032
2022-08-18T16:01:21.041Z,2965
2022-08-18T16:02:18.007Z,2374
2022-08-18T16:03:16.438Z,2342
2022-08-18T16:05:16.596Z,2914
2022-08-18T16:06:16.441Z,2261
2022-08-18T16:07:17.849Z,2770
2022-08-18T16:08:16.471Z,2056
2022-08-18T16:10:16.671Z,2596
2022-08-18T16:11:24.655Z,2755
2022-08-18T16:12:16.445Z,2780
2022-08-18T16:13:16.470Z,2186
2022-08-18T16:15:19.774Z,2650
2022-08-18T16:16:16.475Z,2021
2022-08-18T16:17:23.539Z,2476
2022-08-18T16:18:16.455Z,1900
2022-08-18T16:20:16.611Z,2324
2022-08-18T16:21:16.453Z,2382
2022-08-18T16:22:16.477Z,2311
2022-08-18T16:23:16.476Z,2287
2022-08-18T16:25:16.697Z,1816
2022-08-18T16:27:16.469Z,1779
2022-08-18T16:28:16.471Z,2128
2022-08-18T16:30:16.653Z,2019
2022-08-18T16:31:16.465Z,2054
2022-08-18T16:32:16.698Z,2019
2022-08-18T16:33:16.490Z,1907